Cacak, Serbia
Current Conditions -  °F | °C
As of 6:30 PM on Monday 24 Nov 2014 (Local Time) from LYKV Reporting Station
Broken Clouds Broken Clouds  
Wind Chill: 43°   Ceiling: 3000
Heat Index: 43°   Visibility: 5mi
Dew Point: 37°   Wind: 0mph
Humidity: 81%   Direction: NA
Pressure: 30.3"   Gusts: NA
Location:  43.9°N, 20.33°E
Report Text: LYKV 241630Z 00000KT 8000 BKN030 06/03 Q1026 NOSIG
Loading
Personal Weather Stations






























Interactive Weather Map New forecast layout! Learn more

10-Day Weather Forecast

Advertisements
Track Severe Weather on mobile